createdAt,value
2019-06-20T00:00:26.486Z,67.16
2019-06-20T00:01:26.452Z,66.75
2019-06-20T00:02:26.440Z,66.13
2019-06-20T00:03:26.427Z,65.83
2019-06-20T00:04:26.441Z,65.72
2019-06-20T00:05:26.426Z,66.22
2019-06-20T00:06:26.406Z,66.72
2019-06-20T00:07:26.381Z,66.63
2019-06-20T00:08:26.370Z,66.63
2019-06-20T00:09:26.480Z,67.72
2019-06-20T00:10:26.362Z,68.02
2019-06-20T00:11:26.340Z,69.23
2019-06-20T00:12:26.330Z,70.43
2019-06-20T00:13:26.321Z,71.36
2019-06-20T00:14:26.321Z,72.60
2019-06-20T00:15:26.300Z,72.56
2019-06-20T00:16:26.296Z,73.90
2019-06-20T00:17:26.271Z,75.74
2019-06-20T00:18:26.271Z,76.82
2019-06-20T00:19:26.271Z,79.47
2019-06-20T00:20:26.292Z,79.81
2019-06-20T00:21:26.239Z,80.71
2019-06-20T00:22:26.220Z,81.05
2019-06-20T00:23:26.209Z,81.99
2019-06-20T00:24:26.201Z,82.80
2019-06-20T00:25:26.207Z,83.65
2019-06-20T00:26:26.180Z,83.65
2019-06-20T00:27:26.173Z,83.99
2019-06-20T00:28:26.159Z,85.70
2019-06-20T00:29:26.160Z,84.39
2019-06-20T00:30:26.151Z,83.59
2019-06-20T00:31:26.138Z,84.43
2019-06-20T00:32:26.119Z,83.42
2019-06-20T00:33:26.109Z,84.74
2019-06-20T00:34:26.100Z,84.33
2019-06-20T00:35:26.107Z,84.13
2019-06-20T00:36:26.110Z,84.37
2019-06-20T00:37:26.060Z,84.37
2019-06-20T00:38:26.067Z,85.58
2019-06-20T00:39:26.050Z,85.68
2019-06-20T00:40:26.042Z,85.88
2019-06-20T00:41:26.020Z,85.78
2019-06-20T00:42:26.031Z,84.27
2019-06-20T00:43:25.999Z,84.97
2019-06-20T00:44:25.989Z,84.88
2019-06-20T00:45:25.990Z,84.57
2019-06-20T00:46:25.965Z,83.66
2019-06-20T00:47:25.960Z,84.97
2019-06-20T00:48:25.948Z,84.57
2019-06-20T00:49:25.929Z,86.18
2019-06-20T00:50:25.938Z,85.82
2019-06-20T00:51:25.916Z,87.13
2019-06-20T00:52:25.900Z,88.54
2019-06-20T00:53:25.900Z,89.79
2019-06-20T00:54:25.879Z,88.28
2019-06-20T00:55:25.889Z,89.39
2019-06-20T00:56:25.858Z,89.09
2019-06-20T00:57:25.859Z,89.34
2019-06-20T00:58:25.838Z,90.14
2019-06-20T00:59:25.828Z,90.95
2019-06-20T01:00:25.829Z,91.86
2019-06-20T01:01:25.812Z,91.60
2019-06-20T01:02:25.798Z,92.50
2019-06-20T01:03:25.786Z,94.12
2019-06-20T01:04:25.767Z,92.91
2019-06-20T01:05:25.779Z,94.23
2019-06-20T01:06:25.756Z,94.12
2019-06-20T01:07:25.739Z,94.87
2019-06-20T01:08:25.740Z,94.47
2019-06-20T01:09:25.728Z,95.78
2019-06-20T01:10:25.719Z,95.28
2019-06-20T01:11:25.703Z,95.78
2019-06-20T01:12:25.689Z,96.59
2019-06-20T01:13:33.500Z,96.69
2019-06-20T01:14:26.666Z,96.13
2019-06-20T01:15:25.658Z,96.64
2019-06-20T01:16:25.665Z,96.44
2019-06-20T01:17:25.637Z,96.03
2019-06-20T01:18:25.625Z,96.44
2019-06-20T01:19:25.630Z,96.54
2019-06-20T01:20:25.605Z,96.74
2019-06-20T01:21:26.708Z,96.94
2019-06-20T01:22:25.584Z,97.05
2019-06-20T01:23:25.575Z,96.94
2019-06-20T01:24:25.602Z,96.64
2019-06-20T01:25:25.555Z,97.25
2019-06-20T01:26:25.557Z,97.65
2019-06-20T01:27:25.527Z,97.10
2019-06-20T01:28:25.516Z,95.89
2019-06-20T01:29:25.517Z,95.03
2019-06-20T01:30:25.496Z,95.03
2019-06-20T01:31:25.496Z,92.10
2019-06-20T01:32:25.477Z,92.10
2019-06-20T01:33:25.471Z,90.65
2019-06-20T01:34:25.456Z,91.15
2019-06-20T01:35:25.446Z,90.34
2019-06-20T01:36:25.456Z,91.05
2019-06-20T01:37:25.440Z,90.65
2019-06-20T01:38:25.414Z,90.45
2019-06-20T01:39:25.410Z,91.05
2019-06-20T01:40:25.406Z,90.85
2019-06-20T01:41:25.396Z,89.88
2019-06-20T01:42:25.375Z,89.94
2019-06-20T01:43:25.358Z,91.05
2019-06-20T01:44:25.353Z,91.50
2019-06-20T01:45:25.336Z,91.70
2019-06-20T01:46:25.359Z,91.80
2019-06-20T01:47:25.315Z,92.00
2019-06-20T01:48:25.314Z,91.60
2019-06-20T01:49:25.337Z,90.59
2019-06-20T01:50:25.285Z,91.19
2019-06-20T01:51:25.292Z,89.98
2019-06-20T01:52:25.263Z,90.99
2019-06-20T01:53:25.253Z,90.89
2019-06-20T01:54:25.246Z,89.58
2019-06-20T01:55:25.227Z,90.59
2019-06-20T01:56:25.236Z,90.08
2019-06-20T01:57:25.215Z,90.33
2019-06-20T01:58:25.205Z,90.12
2019-06-20T01:59:25.195Z,90.23
2019-06-20T02:00:25.189Z,90.33
2019-06-20T02:01:25.184Z,90.43
2019-06-20T02:02:25.165Z,90.53
2019-06-20T02:03:25.148Z,90.33
2019-06-20T02:04:25.146Z,90.53
2019-06-20T02:05:25.124Z,90.03
2019-06-20T02:06:25.125Z,89.62
2019-06-20T02:07:28.091Z,88.92
2019-06-20T02:08:25.094Z,89.62
2019-06-20T02:09:25.085Z,88.61
2019-06-20T02:10:25.081Z,88.92
2019-06-20T02:11:25.084Z,88.71
2019-06-20T02:12:25.061Z,88.10
2019-06-20T02:13:25.044Z,87.10
2019-06-20T02:14:25.034Z,87.60
2019-06-20T02:15:25.024Z,87.81
2019-06-20T02:16:25.014Z,87.60
2019-06-20T02:17:25.013Z,89.22
2019-06-20T02:18:24.984Z,88.21
2019-06-20T02:19:24.976Z,88.81
2019-06-20T02:20:24.963Z,89.32
2019-06-20T02:21:24.962Z,89.83
2019-06-20T02:22:24.974Z,90.12
2019-06-20T02:23:24.936Z,88.61
2019-06-20T02:24:24.931Z,89.42
2019-06-20T02:25:24.936Z,89.56
2019-06-20T02:26:24.902Z,90.07
2019-06-20T02:27:24.945Z,90.47
2019-06-20T02:28:24.915Z,90.58
2019-06-20T02:29:24.876Z,90.67
2019-06-20T02:30:24.864Z,91.08
2019-06-20T02:31:24.851Z,89.97
2019-06-20T02:32:24.852Z,91.18
2019-06-20T02:33:24.826Z,91.18
2019-06-20T02:34:24.856Z,90.17
2019-06-20T02:35:24.813Z,90.37
2019-06-20T02:36:24.793Z,89.97
2019-06-20T02:37:24.801Z,90.27
2019-06-20T02:38:24.774Z,88.04
2019-06-20T02:39:24.782Z,88.96
2019-06-20T02:40:24.760Z,88.96
2019-06-20T02:41:24.752Z,90.58
2019-06-20T02:42:24.745Z,90.47
2019-06-20T02:43:24.723Z,89.56
2019-06-20T02:44:30.508Z,89.26
2019-06-20T02:45:25.703Z,90.78
2019-06-20T02:46:24.694Z,91.18
2019-06-20T02:47:24.700Z,91.38
2019-06-20T02:48:24.674Z,89.56
2019-06-20T02:49:24.656Z,90.98
2019-06-20T02:50:24.651Z,89.97
2019-06-20T02:51:24.642Z,90.27
2019-06-20T02:52:24.642Z,90.47
2019-06-20T02:53:24.621Z,90.17
2019-06-20T02:54:24.600Z,90.07
2019-06-20T02:55:24.591Z,90.78
2019-06-20T02:56:24.584Z,91.22
2019-06-20T02:57:24.600Z,91.32
2019-06-20T02:58:24.568Z,91.22
2019-06-20T02:59:24.552Z,91.63
2019-06-20T03:00:24.542Z,91.32
2019-06-20T03:01:24.524Z,91.83
2019-06-20T03:02:24.559Z,91.63
2019-06-20T03:03:24.510Z,91.53
2019-06-20T03:04:24.499Z,91.93
2019-06-20T03:05:24.493Z,92.33
2019-06-20T03:06:24.472Z,92.44
2019-06-20T03:07:24.485Z,91.42
2019-06-20T03:08:24.460Z,92.13
2019-06-20T03:09:24.450Z,92.33
2019-06-20T03:10:24.439Z,92.03
2019-06-20T03:11:24.420Z,93.15
2019-06-20T03:12:24.429Z,92.33
2019-06-20T03:13:24.408Z,91.63
2019-06-20T03:14:24.399Z,92.49
2019-06-20T03:15:24.378Z,91.49
2019-06-20T03:16:24.362Z,91.78
2019-06-20T03:17:24.383Z,91.18
2019-06-20T03:18:24.348Z,91.58
2019-06-20T03:19:24.339Z,92.49
2019-06-20T03:20:24.319Z,93.10
2019-06-20T03:21:24.331Z,92.44
2019-06-20T03:22:24.321Z,92.33
2019-06-20T03:23:24.290Z,92.44
2019-06-20T03:24:24.280Z,92.60
2019-06-20T03:25:24.289Z,92.40
2019-06-20T03:26:24.264Z,92.49
2019-06-20T03:27:24.250Z,92.33
2019-06-20T03:28:24.257Z,92.44
2019-06-20T03:29:24.230Z,93.04
2019-06-20T03:30:24.218Z,92.64
2019-06-20T03:31:24.207Z,92.54
2019-06-20T03:32:24.197Z,93.15
2019-06-20T03:33:24.199Z,92.54
2019-06-20T03:34:24.180Z,93.44
2019-06-20T03:35:24.158Z,93.85
2019-06-20T03:36:24.158Z,93.35
2019-06-20T03:37:24.145Z,93.75
2019-06-20T03:38:24.146Z,93.15
2019-06-20T03:39:24.122Z,93.35
2019-06-20T03:40:24.107Z,93.00
2019-06-20T03:41:24.098Z,91.99
2019-06-20T03:42:24.096Z,92.19
2019-06-20T03:43:24.087Z,92.19
2019-06-20T03:44:24.066Z,92.69
2019-06-20T03:45:24.058Z,93.51
2019-06-20T03:46:24.038Z,93.30
2019-06-20T03:47:24.042Z,93.60
2019-06-20T03:48:24.057Z,93.51
2019-06-20T03:49:24.025Z,94.01
2019-06-20T03:50:23.997Z,94.21
2019-06-20T03:51:23.996Z,95.02
2019-06-20T03:52:23.983Z,95.02
2019-06-20T03:53:23.988Z,94.82
2019-06-20T03:54:23.956Z,95.43
2019-06-20T03:55:23.946Z,94.76
2019-06-20T03:56:23.936Z,94.86
2019-06-20T03:57:23.930Z,94.56
2019-06-20T03:58:23.938Z,95.47
2019-06-20T03:59:23.905Z,95.37
2019-06-20T04:00:23.897Z,95.78
2019-06-20T04:01:23.886Z,95.57
2019-06-20T04:02:23.912Z,95.78
2019-06-20T04:03:23.885Z,95.47
2019-06-20T04:04:23.855Z,95.67
2019-06-20T04:05:23.877Z,96.08
2019-06-20T04:06:23.838Z,96.48
2019-06-20T04:07:23.824Z,96.69
2019-06-20T04:08:23.833Z,96.44
2019-06-20T04:09:23.811Z,95.83
2019-06-20T04:10:23.787Z,95.93
2019-06-20T04:11:23.786Z,95.43
2019-06-20T04:12:23.766Z,93.71
2019-06-20T04:13:23.760Z,94.72
2019-06-20T04:14:23.765Z,95.02
2019-06-20T04:15:23.744Z,94.87
2019-06-20T04:16:23.726Z,93.66
2019-06-20T04:17:23.716Z,94.87
2019-06-20T04:18:23.706Z,93.05
2019-06-20T04:19:23.707Z,94.67
2019-06-20T04:20:23.700Z,93.32
2019-06-20T04:21:23.684Z,93.82
2019-06-20T04:22:23.662Z,94.23
2019-06-20T04:23:23.656Z,93.82
2019-06-20T04:24:23.657Z,93.72
2019-06-20T04:25:23.644Z,91.90
2019-06-20T04:26:23.623Z,91.39
2019-06-20T04:27:23.614Z,92.41
2019-06-20T04:28:23.596Z,93.07
2019-06-20T04:29:23.598Z,90.45
2019-06-20T04:30:23.574Z,90.04
2019-06-20T04:31:23.569Z,89.94
2019-06-20T04:32:23.554Z,90.45
2019-06-20T04:33:23.544Z,90.65
2019-06-20T04:34:23.555Z,91.66
2019-06-20T04:35:23.524Z,91.66
2019-06-20T04:36:23.519Z,90.14
2019-06-20T04:37:23.503Z,89.74
2019-06-20T04:38:23.496Z,89.94
2019-06-20T04:39:23.494Z,89.50
2019-06-20T04:40:23.473Z,89.90
2019-06-20T04:41:23.460Z,88.79
2019-06-20T04:42:23.453Z,88.59
2019-06-20T04:43:23.436Z,88.48
2019-06-20T04:44:23.453Z,87.74
2019-06-20T04:45:34.664Z,87.23
2019-06-20T04:46:24.416Z,87.23
2019-06-20T04:47:23.394Z,86.53
2019-06-20T04:48:23.384Z,86.58
2019-06-20T04:49:23.398Z,85.88
2019-06-20T04:50:23.370Z,86.38
2019-06-20T04:51:23.354Z,86.38
2019-06-20T04:52:23.342Z,87.15
2019-06-20T04:53:23.345Z,86.85
2019-06-20T04:54:23.332Z,85.24
2019-06-20T04:55:23.312Z,86.24
2019-06-20T04:56:23.302Z,86.35
2019-06-20T04:57:23.291Z,84.74
2019-06-20T04:58:23.282Z,85.84
2019-06-20T04:59:23.281Z,85.24
2019-06-20T05:00:23.260Z,84.63
2019-06-20T05:01:23.243Z,85.44
2019-06-20T05:02:23.242Z,85.24
2019-06-20T05:03:23.222Z,84.74
2019-06-20T05:04:23.298Z,85.24
2019-06-20T05:05:23.203Z,85.24
2019-06-20T05:06:23.194Z,86.15
2019-06-20T05:07:23.181Z,86.44
2019-06-20T05:08:23.178Z,85.34
2019-06-20T05:09:23.172Z,86.08
2019-06-20T05:10:23.156Z,85.68
2019-06-20T05:11:23.148Z,85.88
2019-06-20T05:12:23.131Z,86.58
2019-06-20T05:13:23.125Z,86.29
2019-06-20T05:14:23.130Z,86.38
2019-06-20T05:15:23.101Z,86.55
2019-06-20T05:16:23.082Z,85.24
2019-06-20T05:17:23.072Z,85.50
2019-06-20T05:18:23.071Z,85.70
2019-06-20T05:19:23.068Z,85.40
2019-06-20T05:20:23.048Z,85.30
2019-06-20T05:21:23.039Z,85.00
2019-06-20T05:22:23.021Z,85.40
2019-06-20T05:23:23.018Z,85.70
2019-06-20T05:24:25.540Z,85.70
2019-06-20T05:25:22.990Z,85.00
2019-06-20T05:26:22.985Z,84.59
2019-06-20T05:27:22.969Z,84.35
2019-06-20T05:28:22.960Z,84.25
2019-06-20T05:29:22.961Z,83.20
2019-06-20T05:30:22.939Z,83.51
2019-06-20T05:31:22.931Z,82.90
2019-06-20T05:32:22.917Z,82.50
2019-06-20T05:33:22.932Z,82.50
2019-06-20T05:34:22.889Z,82.40
2019-06-20T05:35:22.898Z,82.80
2019-06-20T05:36:22.879Z,82.26
2019-06-20T05:37:22.871Z,82.06
2019-06-20T05:38:22.866Z,81.76
2019-06-20T05:39:22.846Z,82.36
2019-06-20T05:40:22.846Z,83.06
2019-06-20T05:41:22.820Z,82.26
2019-06-20T05:42:22.810Z,81.96
2019-06-20T05:43:22.798Z,81.62
2019-06-20T05:44:22.792Z,81.52
2019-06-20T05:45:22.790Z,80.68
2019-06-20T05:46:22.759Z,80.88
2019-06-20T05:47:22.760Z,80.57
2019-06-20T05:48:22.750Z,78.63
2019-06-20T05:49:22.749Z,78.03
2019-06-20T05:50:22.750Z,78.59
2019-06-20T05:51:22.723Z,77.69
2019-06-20T05:52:22.698Z,77.75
2019-06-20T05:53:22.711Z,77.05
2019-06-20T05:54:22.679Z,77.11
2019-06-20T05:55:24.328Z,75.71
2019-06-20T05:56:22.661Z,76.41
2019-06-20T05:57:22.648Z,75.57
2019-06-20T05:58:22.638Z,75.37
2019-06-20T05:59:22.628Z,79.18
2019-06-20T06:00:22.637Z,76.14
2019-06-20T06:01:22.607Z,75.74
2019-06-20T06:02:22.588Z,75.04
2019-06-20T06:03:22.578Z,73.53
2019-06-20T06:04:22.575Z,75.04
2019-06-20T06:05:22.641Z,75.54
2019-06-20T06:06:22.557Z,74.43
2019-06-20T06:07:23.068Z,76.30
2019-06-20T06:08:22.532Z,75.60
2019-06-20T06:09:22.517Z,75.80
2019-06-20T06:10:23.241Z,75.70
2019-06-20T06:11:22.505Z,73.93
2019-06-20T06:12:22.487Z,75.23
2019-06-20T06:13:22.481Z,76.40
2019-06-20T06:14:22.492Z,74.60
2019-06-20T06:15:22.481Z,74.40
2019-06-20T06:16:26.996Z,75.00
2019-06-20T06:17:23.438Z,74.20
2019-06-20T06:19:30.744Z,74.66
2019-06-20T06:20:30.732Z,73.39
2019-06-20T06:21:30.705Z,73.80
2019-06-20T06:22:30.695Z,74.00
2019-06-20T06:23:30.685Z,73.70
2019-06-20T06:24:30.675Z,74.50
2019-06-20T06:25:30.694Z,73.10
2019-06-20T06:26:30.655Z,73.39
2019-06-20T06:27:30.651Z,74.20
2019-06-20T06:28:30.670Z,73.46
2019-06-20T06:29:30.635Z,72.76
2019-06-20T06:30:30.622Z,72.16
2019-06-20T06:31:30.594Z,70.96
2019-06-20T06:32:39.647Z,72.30
2019-06-20T06:33:31.575Z,72.89
2019-06-20T06:34:30.573Z,74.46
2019-06-20T06:35:30.565Z,73.86
2019-06-20T06:36:30.545Z,71.19
2019-06-20T06:37:30.534Z,71.69
2019-06-20T06:38:30.524Z,72.09
2019-06-20T06:39:30.513Z,72.30
2019-06-20T06:40:30.515Z,71.80
2019-06-20T06:41:30.499Z,71.86
2019-06-20T06:42:30.484Z,71.50
2019-06-20T06:43:30.475Z,72.26
2019-06-20T06:44:31.788Z,71.36
2019-06-20T06:45:30.474Z,72.06
2019-06-20T06:46:44.054Z,72.06
2019-06-20T06:47:31.423Z,71.86
2019-06-20T06:48:30.423Z,71.26
2019-06-20T06:49:30.478Z,71.46
2019-06-20T06:50:30.429Z,71.26
2019-06-20T06:51:30.393Z,70.46
2019-06-20T06:52:30.389Z,70.32
2019-06-20T06:53:30.380Z,69.93
2019-06-20T06:55:06.085Z,70.43
2019-06-20T06:55:30.373Z,69.23
2019-06-20T06:56:30.342Z,70.32
2019-06-20T06:57:30.323Z,70.03
2019-06-20T06:58:30.318Z,70.12
2019-06-20T06:59:30.302Z,69.32
2019-06-20T07:00:30.292Z,69.43
2019-06-20T07:01:30.292Z,69.43
2019-06-20T07:02:30.263Z,69.93
2019-06-20T07:03:30.251Z,70.32
2019-06-20T07:04:30.246Z,70.19
2019-06-20T07:05:30.232Z,70.09
2019-06-20T07:06:30.243Z,69.53
2019-06-20T07:07:30.213Z,70.32
2019-06-20T07:08:30.227Z,70.03
2019-06-20T07:09:30.183Z,71.33
2019-06-20T07:10:30.175Z,71.12
2019-06-20T07:11:30.172Z,71.62
2019-06-20T07:12:30.160Z,71.09
2019-06-20T07:13:30.156Z,69.96
2019-06-20T07:14:30.144Z,69.96
2019-06-20T07:15:30.122Z,70.92
2019-06-20T07:16:30.156Z,68.93
2019-06-20T07:17:30.105Z,69.82
2019-06-20T07:18:30.091Z,68.76
2019-06-20T07:19:30.083Z,69.26
2019-06-20T07:20:30.083Z,69.23
2019-06-20T07:21:30.071Z,68.52
2019-06-20T07:22:30.052Z,68.73
2019-06-20T07:23:30.046Z,68.82
2019-06-20T07:24:30.029Z,67.49
2019-06-20T07:25:30.012Z,68.59
2019-06-20T07:26:30.022Z,66.80
2019-06-20T07:27:29.998Z,66.53
2019-06-20T07:28:29.983Z,66.83
2019-06-20T07:29:29.988Z,67.83
2019-06-20T07:30:29.977Z,68.26
2019-06-20T07:31:29.962Z,68.13
2019-06-20T07:32:29.958Z,67.86
2019-06-20T07:33:29.932Z,68.26
2019-06-20T07:34:29.921Z,68.49
2019-06-20T07:35:29.928Z,69.46
2019-06-20T07:36:29.924Z,67.83
2019-06-20T07:37:29.891Z,67.63
2019-06-20T07:38:29.872Z,67.63
2019-06-20T07:39:29.863Z,67.49
2019-06-20T07:40:29.873Z,67.43
2019-06-20T07:41:29.861Z,67.43
2019-06-20T07:42:29.840Z,68.52
2019-06-20T07:43:29.822Z,68.66
2019-06-20T07:44:29.811Z,68.23
2019-06-20T07:45:29.805Z,68.73
2019-06-20T07:46:29.812Z,68.23
2019-06-20T07:47:29.790Z,68.52
2019-06-20T07:48:29.773Z,69.02
2019-06-20T07:50:39.444Z,66.39
2019-06-20T07:51:38.080Z,66.50
2019-06-20T07:52:38.043Z,67.00
2019-06-20T07:53:38.034Z,67.40
2019-06-20T07:54:38.023Z,67.66
2019-06-20T07:55:38.012Z,68.73
2019-06-20T07:56:38.012Z,66.83
2019-06-20T07:57:38.086Z,66.93
2019-06-20T07:58:37.990Z,66.36
2019-06-20T07:59:37.995Z,66.20
2019-06-20T08:00:44.833Z,65.13
2019-06-20T08:01:37.963Z,65.76
2019-06-20T08:02:37.941Z,65.49
2019-06-20T08:03:37.929Z,67.52
2019-06-20T08:04:37.918Z,67.43
2019-06-20T08:05:37.943Z,66.42
2019-06-20T08:06:37.966Z,66.42
2019-06-20T08:07:37.897Z,66.13
2019-06-20T08:08:37.906Z,67.09
2019-06-20T08:09:44.894Z,65.79
2019-06-20T08:10:38.861Z,66.69
2019-06-20T08:11:37.854Z,66.39
2019-06-20T08:12:37.829Z,65.99
2019-06-20T08:13:37.820Z,66.59
2019-06-20T08:14:37.814Z,66.39
2019-06-20T08:15:37.792Z,67.32
2019-06-20T08:16:37.802Z,66.63
2019-06-20T08:17:37.771Z,67.49
2019-06-20T08:18:37.761Z,67.29
2019-06-20T08:19:37.761Z,65.79
2019-06-20T08:20:37.751Z,65.09
2019-06-20T08:21:37.742Z,65.39
2019-06-20T08:22:37.721Z,65.39
2019-06-20T08:23:37.712Z,66.36
2019-06-20T08:24:37.701Z,66.73
2019-06-20T08:25:37.691Z,66.43
2019-06-20T08:26:37.702Z,66.23
2019-06-20T08:27:37.671Z,65.63
2019-06-20T08:28:37.669Z,65.63
2019-06-20T08:29:37.659Z,66.26
2019-06-20T08:30:37.638Z,66.06
2019-06-20T08:31:37.630Z,66.39
2019-06-20T08:32:37.640Z,67.89
2019-06-20T08:33:37.611Z,68.29
2019-06-20T08:34:37.605Z,68.36
2019-06-20T08:35:37.590Z,67.96
2019-06-20T08:36:37.572Z,66.96
2019-06-20T08:37:37.580Z,67.16
2019-06-20T08:38:37.835Z,66.36
2019-06-20T08:39:37.538Z,65.86
2019-06-20T08:40:37.528Z,66.06
2019-06-20T08:41:37.520Z,65.33
2019-06-20T08:42:37.533Z,64.33
2019-06-20T08:43:37.501Z,65.83
2019-06-20T08:44:37.490Z,65.60
2019-06-20T08:45:37.480Z,66.50
2019-06-20T08:46:37.492Z,63.40
2019-06-20T08:47:37.483Z,62.87
2019-06-20T08:48:37.441Z,63.24
2019-06-20T08:49:37.439Z,59.92
2019-06-20T08:50:37.421Z,59.36
2019-06-20T08:51:37.411Z,57.19
2019-06-20T08:52:37.420Z,56.91
2019-06-20T08:53:37.403Z,54.30
2019-06-20T08:54:37.384Z,53.51
2019-06-20T08:55:37.369Z,53.98
2019-06-20T08:56:37.367Z,52.94
2019-06-20T08:57:37.370Z,53.45
2019-06-20T08:58:37.339Z,52.71
2019-06-20T08:59:37.331Z,51.10
2019-06-20T09:00:37.339Z,51.18
2019-06-20T09:01:37.310Z,52.66
2019-06-20T09:02:37.335Z,52.04
2019-06-20T09:03:37.317Z,50.63
2019-06-20T09:04:37.291Z,50.85
2019-06-20T09:05:37.261Z,48.68
2019-06-20T09:06:37.259Z,48.16
2019-06-20T09:07:37.263Z,48.93
2019-06-20T09:08:37.234Z,50.04
2019-06-20T09:09:37.220Z,50.06
2019-06-20T09:10:37.237Z,50.81
2019-06-20T09:11:37.190Z,49.52
2019-06-20T09:12:37.231Z,48.61
2019-06-20T09:13:37.189Z,49.02
2019-06-20T09:14:37.168Z,49.62
2019-06-20T09:15:37.162Z,49.37
2019-06-20T09:16:37.149Z,49.89
2019-06-20T09:17:37.149Z,49.99
2019-06-20T09:18:37.129Z,51.25
2019-06-20T09:19:37.124Z,52.69
2019-06-20T09:20:37.109Z,51.52
2019-06-20T09:21:37.089Z,50.90
2019-06-20T09:22:37.099Z,50.01
2019-06-20T09:23:37.070Z,50.29
2019-06-20T09:24:37.060Z,49.57
2019-06-20T09:25:37.050Z,48.73
2019-06-20T09:26:37.040Z,49.30
2019-06-20T09:27:37.091Z,47.62
2019-06-20T09:28:37.019Z,48.73
2019-06-20T09:29:41.751Z,50.04
2019-06-20T09:30:38.005Z,49.20
2019-06-20T09:31:36.994Z,48.71
2019-06-20T09:32:36.990Z,49.20
2019-06-20T09:33:36.981Z,49.13
2019-06-20T09:34:36.951Z,49.25
2019-06-20T09:35:36.940Z,49.82
2019-06-20T09:36:36.977Z,49.01
2019-06-20T09:37:36.920Z,49.27
2019-06-20T09:38:36.948Z,49.45
2019-06-20T09:39:36.902Z,48.54
2019-06-20T09:40:36.891Z,48.96
2019-06-20T09:41:36.880Z,47.45
2019-06-20T09:42:37.018Z,46.96
2019-06-20T09:43:36.870Z,47.53
2019-06-20T09:44:36.853Z,47.94
2019-06-20T09:45:36.831Z,48.68
2019-06-20T09:46:36.831Z,50.31
2019-06-20T09:47:36.864Z,50.09
2019-06-20T09:48:36.811Z,54.17
2019-06-20T09:49:36.807Z,55.19
2019-06-20T09:50:36.790Z,56.02
2019-06-20T09:51:36.780Z,53.36
2019-06-20T09:52:36.760Z,54.81
2019-06-20T09:53:36.772Z,48.95
2019-06-20T09:54:36.744Z,49.79
2019-06-20T09:55:36.733Z,49.77
2019-06-20T09:56:36.712Z,49.91
2019-06-20T09:57:36.712Z,48.11
2019-06-20T09:58:36.711Z,48.51
2019-06-20T09:59:36.692Z,46.93
2019-06-20T10:00:36.700Z,48.34
2019-06-20T10:01:36.803Z,46.48
2019-06-20T10:02:36.650Z,48.77
2019-06-20T10:03:36.660Z,50.68
2019-06-20T10:04:36.848Z,50.88
2019-06-20T10:05:36.621Z,51.25
2019-06-20T10:06:36.615Z,53.80
2019-06-20T10:07:36.602Z,52.22
2019-06-20T10:08:36.604Z,50.68
2019-06-20T10:09:36.603Z,50.60
2019-06-20T10:10:36.571Z,53.31
2019-06-20T10:11:36.560Z,51.12
2019-06-20T10:12:36.568Z,54.30
2019-06-20T10:13:36.593Z,51.75
2019-06-20T10:14:36.532Z,53.13
2019-06-20T10:15:36.518Z,52.54
2019-06-20T10:16:45.251Z,52.76
2019-06-20T10:17:37.502Z,52.02
2019-06-20T10:18:36.480Z,54.63
2019-06-20T10:19:36.491Z,53.83
2019-06-20T10:20:38.835Z,53.66
2019-06-20T10:21:36.522Z,54.65
2019-06-20T10:22:36.465Z,54.35
2019-06-20T10:23:36.432Z,54.23
2019-06-20T10:24:36.439Z,53.53
2019-06-20T10:25:36.411Z,52.91
2019-06-20T10:26:37.782Z,53.21
2019-06-20T10:27:36.393Z,51.70
2019-06-20T10:28:36.374Z,52.47
2019-06-20T10:29:36.382Z,51.07
2019-06-20T10:30:36.352Z,49.37
2019-06-20T10:31:36.351Z,49.25
2019-06-20T10:32:36.331Z,49.57
2019-06-20T10:33:36.322Z,47.86
2019-06-20T10:34:36.339Z,46.44
2019-06-20T10:35:36.300Z,46.53
2019-06-20T10:36:36.292Z,47.71
2019-06-20T10:37:36.291Z,49.54
2019-06-20T10:38:36.271Z,51.52
2019-06-20T10:39:36.271Z,53.69
2019-06-20T10:40:36.253Z,56.00
2019-06-20T10:41:36.236Z,57.22
2019-06-20T10:42:36.230Z,58.81
2019-06-20T10:43:36.223Z,57.45
2019-06-20T10:44:36.222Z,58.37
2019-06-20T10:45:36.212Z,59.17
2019-06-20T10:46:36.192Z,58.67
2019-06-20T10:47:36.271Z,59.89
2019-06-20T10:48:36.167Z,59.49
2019-06-20T10:49:36.179Z,59.89
2019-06-20T10:50:36.145Z,59.99
2019-06-20T10:51:36.132Z,59.89
2019-06-20T10:52:36.133Z,59.79
2019-06-20T10:53:36.111Z,60.09
2019-06-20T10:54:36.111Z,60.29
2019-06-20T10:55:36.097Z,60.29
2019-06-20T10:56:36.086Z,60.19
2019-06-20T10:57:36.072Z,61.29
2019-06-20T10:58:36.091Z,61.69
2019-06-20T10:59:36.061Z,60.49
2019-06-20T11:00:36.036Z,60.49
2019-06-20T11:01:36.022Z,60.32
2019-06-20T11:02:36.012Z,60.22
2019-06-20T11:03:36.002Z,59.92
2019-06-20T11:04:36.014Z,60.32
2019-06-20T11:05:35.984Z,60.85
2019-06-20T11:06:35.972Z,61.85
2019-06-20T11:07:35.983Z,62.54
2019-06-20T11:08:35.971Z,62.04
2019-06-20T11:09:35.957Z,62.64
2019-06-20T11:10:35.924Z,62.24
2019-06-20T11:11:35.923Z,62.48
2019-06-20T11:12:45.638Z,63.47
2019-06-20T11:13:38.959Z,62.84
2019-06-20T11:14:35.924Z,62.27
2019-06-20T11:15:35.879Z,63.54
2019-06-20T11:16:35.874Z,63.24
2019-06-20T11:17:35.862Z,64.14
2019-06-20T11:18:38.272Z,62.84
2019-06-20T11:19:38.112Z,63.04
2019-06-20T11:20:35.835Z,62.54
2019-06-20T11:21:37.924Z,63.64
2019-06-20T11:22:37.855Z,62.15
2019-06-20T11:23:36.482Z,60.95
2019-06-20T11:24:37.490Z,61.85
2019-06-20T11:25:36.999Z,62.84
2019-06-20T11:26:37.761Z,64.34
2019-06-20T11:27:37.115Z,64.24
2019-06-20T11:28:37.702Z,66.47
2019-06-20T11:29:37.800Z,67.69
2019-06-20T11:30:47.983Z,69.43
2019-06-20T11:31:37.857Z,70.39
2019-06-20T11:32:36.574Z,73.13
2019-06-20T11:33:38.260Z,75.30
2019-06-20T11:34:37.724Z,77.44
2019-06-20T11:35:36.609Z,77.64
2019-06-20T11:36:37.023Z,78.98
2019-06-20T11:37:36.459Z,78.78
2019-06-20T11:38:35.633Z,78.58
2019-06-20T11:39:36.233Z,78.78
2019-06-20T11:40:36.843Z,78.54
2019-06-20T11:41:36.770Z,78.24
2019-06-20T11:42:36.085Z,78.41
2019-06-20T11:43:36.281Z,79.00
2019-06-20T11:44:36.989Z,78.17
2019-06-20T11:45:37.175Z,76.43
2019-06-20T11:46:36.963Z,77.49
2019-06-20T11:47:36.539Z,74.99
2019-06-20T11:48:36.773Z,76.79
2019-06-20T11:49:36.419Z,75.16
2019-06-20T11:50:36.209Z,74.52
2019-06-20T11:51:35.987Z,75.62
2019-06-20T11:52:40.578Z,71.59
2019-06-20T11:53:36.576Z,73.38
2019-06-20T11:54:35.998Z,67.60
2019-06-20T11:55:35.464Z,65.75
2019-06-20T11:56:35.434Z,64.95
2019-06-20T11:57:35.456Z,65.35
2019-06-20T11:58:35.433Z,68.73
2019-06-20T11:59:35.441Z,63.18
2019-06-20T12:00:35.453Z,63.17
2019-06-20T12:01:35.389Z,69.03
2019-06-20T12:02:35.373Z,67.60
2019-06-20T12:03:35.361Z,62.94
2019-06-20T12:04:35.353Z,65.25
2019-06-20T12:05:35.362Z,62.07
2019-06-20T12:06:35.344Z,61.52
2019-06-20T12:07:35.323Z,59.34
2019-06-20T12:08:35.334Z,58.94
2019-06-20T12:09:36.584Z,57.50
2019-06-20T12:10:35.307Z,56.30
2019-06-20T12:11:35.274Z,56.93
2019-06-20T12:12:35.278Z,56.30
2019-06-20T12:13:35.253Z,55.76
2019-06-20T12:14:35.242Z,58.11
2019-06-20T12:15:35.243Z,56.18
2019-06-20T12:16:35.233Z,56.15
2019-06-20T12:17:35.212Z,54.74
2019-06-20T12:18:35.212Z,57.16
2019-06-20T12:19:35.184Z,54.83
2019-06-20T12:20:35.173Z,51.84
2019-06-20T12:21:35.194Z,53.72
2019-06-20T12:22:35.153Z,57.07
2019-06-20T12:23:35.143Z,56.41
2019-06-20T12:24:35.133Z,54.91
2019-06-20T12:25:35.129Z,56.55
2019-06-20T12:26:35.123Z,55.11
2019-06-20T12:27:35.118Z,57.48
2019-06-20T12:28:35.091Z,61.54
2019-06-20T12:29:35.083Z,60.38
2019-06-20T12:30:35.084Z,60.60
2019-06-20T12:31:35.097Z,62.82
2019-06-20T12:32:35.054Z,63.05
2019-06-20T12:33:35.070Z,62.26
2019-06-20T12:34:35.037Z,66.07
2019-06-20T12:35:35.022Z,63.48
2019-06-20T12:36:35.024Z,64.51
2019-06-20T12:37:34.994Z,66.73
2019-06-20T12:38:34.990Z,66.03
2019-06-20T12:39:34.974Z,65.73
2019-06-20T12:40:34.963Z,66.53
2019-06-20T12:41:34.966Z,67.46
2019-06-20T12:42:34.943Z,66.83
2019-06-20T12:43:34.924Z,70.12
2019-06-20T12:44:34.923Z,67.33
2019-06-20T12:45:34.903Z,68.43
2019-06-20T12:46:34.912Z,69.13
2019-06-20T12:47:34.905Z,68.36
2019-06-20T12:48:34.884Z,70.26
2019-06-20T12:49:34.865Z,71.86
2019-06-20T12:50:34.864Z,69.86
2019-06-20T12:51:34.873Z,69.26
2019-06-20T12:52:34.833Z,68.76
2019-06-20T12:53:34.823Z,68.76
2019-06-20T12:54:34.825Z,68.86